sensor_id;sensor_type;location;lat;lon;timestamp;temperature;humidity
77741;DHT22;66919;51.006;4.630;2024-02-14T00:00:45;10.10;86.10
77741;DHT22;66919;51.006;4.630;2024-02-14T00:03:10;10.00;86.70
77741;DHT22;66919;51.006;4.630;2024-02-14T00:05:36;10.00;87.00
77741;DHT22;66919;51.006;4.630;2024-02-14T00:08:01;10.00;86.90
77741;DHT22;66919;51.006;4.630;2024-02-14T00:10:28;10.10;86.20
77741;DHT22;66919;51.006;4.630;2024-02-14T00:12:54;9.90;87.00
77741;DHT22;66919;51.006;4.630;2024-02-14T00:15:21;10.10;86.60
77741;DHT22;66919;51.006;4.630;2024-02-14T00:17:46;10.10;86.60
77741;DHT22;66919;51.006;4.630;2024-02-14T00:20:12;10.20;86.00
77741;DHT22;66919;51.006;4.630;2024-02-14T00:22:38;10.20;85.90
77741;DHT22;66919;51.006;4.630;2024-02-14T00:25:04;10.20;86.10
77741;DHT22;66919;51.006;4.630;2024-02-14T00:27:30;10.20;85.80
77741;DHT22;66919;51.006;4.630;2024-02-14T00:29:56;10.20;86.20
77741;DHT22;66919;51.006;4.630;2024-02-14T00:32:22;10.10;86.60
77741;DHT22;66919;51.006;4.630;2024-02-14T00:34:47;10.30;85.90
77741;DHT22;66919;51.006;4.630;2024-02-14T00:37:14;10.30;85.50
77741;DHT22;66919;51.006;4.630;2024-02-14T00:39:40;10.30;85.40
77741;DHT22;66919;51.006;4.630;2024-02-14T00:42:06;10.30;85.80
77741;DHT22;66919;51.006;4.630;2024-02-14T00:44:31;10.20;86.00
77741;DHT22;66919;51.006;4.630;2024-02-14T00:46:57;10.20;86.20
77741;DHT22;66919;51.006;4.630;2024-02-14T00:49:27;10.20;86.30
77741;DHT22;66919;51.006;4.630;2024-02-14T00:51:53;10.30;85.90
77741;DHT22;66919;51.006;4.630;2024-02-14T00:54:18;10.20;86.00
77741;DHT22;66919;51.006;4.630;2024-02-14T00:56:44;10.30;86.00
77741;DHT22;66919;51.006;4.630;2024-02-14T00:59:10;10.40;85.60
77741;DHT22;66919;51.006;4.630;2024-02-14T01:01:36;10.30;85.40
77741;DHT22;66919;51.006;4.630;2024-02-14T01:04:01;10.50;85.10
77741;DHT22;66919;51.006;4.630;2024-02-14T01:06:30;10.40;85.40
77741;DHT22;66919;51.006;4.630;2024-02-14T01:08:55;10.50;85.00
77741;DHT22;66919;51.006;4.630;2024-02-14T01:11:21;10.30;85.50
77741;DHT22;66919;51.006;4.630;2024-02-14T01:13:47;10.40;85.40
77741;DHT22;66919;51.006;4.630;2024-02-14T01:16:12;10.40;85.30
77741;DHT22;66919;51.006;4.630;2024-02-14T01:18:38;10.40;85.80
77741;DHT22;66919;51.006;4.630;2024-02-14T01:21:03;10.50;85.90
77741;DHT22;66919;51.006;4.630;2024-02-14T01:23:29;10.50;85.80
77741;DHT22;66919;51.006;4.630;2024-02-14T01:25:55;10.30;86.80
77741;DHT22;66919;51.006;4.630;2024-02-14T01:28:21;10.30;87.10
77741;DHT22;66919;51.006;4.630;2024-02-14T01:30:46;10.30;87.30
77741;DHT22;66919;51.006;4.630;2024-02-14T01:33:12;10.30;86.90
77741;DHT22;66919;51.006;4.630;2024-02-14T01:35:38;10.30;87.40
77741;DHT22;66919;51.006;4.630;2024-02-14T01:38:04;10.30;87.00
77741;DHT22;66919;51.006;4.630;2024-02-14T01:40:29;10.30;86.90
77741;DHT22;66919;51.006;4.630;2024-02-14T01:42:55;10.30;87.30
77741;DHT22;66919;51.006;4.630;2024-02-14T01:45:21;10.30;87.40
77741;DHT22;66919;51.006;4.630;2024-02-14T01:47:48;10.30;87.40
77741;DHT22;66919;51.006;4.630;2024-02-14T01:50:15;10.40;87.40
77741;DHT22;66919;51.006;4.630;2024-02-14T01:52:41;10.30;87.70
77741;DHT22;66919;51.006;4.630;2024-02-14T01:55:08;10.30;87.50
77741;DHT22;66919;51.006;4.630;2024-02-14T01:57:34;10.30;87.80
77741;DHT22;66919;51.006;4.630;2024-02-14T02:00:03;10.40;87.70
77741;DHT22;66919;51.006;4.630;2024-02-14T02:02:34;10.50;87.60
77741;DHT22;66919;51.006;4.630;2024-02-14T02:05:02;10.50;87.10
77741;DHT22;66919;51.006;4.630;2024-02-14T02:07:28;10.40;88.10
77741;DHT22;66919;51.006;4.630;2024-02-14T02:09:53;10.30;88.90
77741;DHT22;66919;51.006;4.630;2024-02-14T02:12:19;10.40;88.40
77741;DHT22;66919;51.006;4.630;2024-02-14T02:14:44;10.40;88.20
77741;DHT22;66919;51.006;4.630;2024-02-14T02:17:11;10.30;88.60
77741;DHT22;66919;51.006;4.630;2024-02-14T02:19:37;10.40;88.30
77741;DHT22;66919;51.006;4.630;2024-02-14T02:22:04;10.40;88.80
77741;DHT22;66919;51.006;4.630;2024-02-14T02:24:30;10.50;88.30
77741;DHT22;66919;51.006;4.630;2024-02-14T02:26:56;10.60;87.90
77741;DHT22;66919;51.006;4.630;2024-02-14T02:29:22;10.60;87.70
77741;DHT22;66919;51.006;4.630;2024-02-14T02:31:48;10.60;87.50
77741;DHT22;66919;51.006;4.630;2024-02-14T02:34:13;10.50;88.00
77741;DHT22;66919;51.006;4.630;2024-02-14T02:36:40;10.40;88.50
77741;DHT22;66919;51.006;4.630;2024-02-14T02:39:06;10.40;88.50
77741;DHT22;66919;51.006;4.630;2024-02-14T02:41:33;10.30;88.70
77741;DHT22;66919;51.006;4.630;2024-02-14T02:43:58;10.30;88.90
77741;DHT22;66919;51.006;4.630;2024-02-14T02:46:24;10.50;88.30
77741;DHT22;66919;51.006;4.630;2024-02-14T02:48:51;10.40;88.50
77741;DHT22;66919;51.006;4.630;2024-02-14T02:51:17;10.40;88.60
77741;DHT22;66919;51.006;4.630;2024-02-14T02:53:43;10.50;88.00
77741;DHT22;66919;51.006;4.630;2024-02-14T02:56:09;10.50;88.10
77741;DHT22;66919;51.006;4.630;2024-02-14T02:58:34;10.50;88.10
77741;DHT22;66919;51.006;4.630;2024-02-14T03:01:00;10.50;88.20
77741;DHT22;66919;51.006;4.630;2024-02-14T03:03:26;10.40;88.60
77741;DHT22;66919;51.006;4.630;2024-02-14T03:05:53;10.30;90.00
77741;DHT22;66919;51.006;4.630;2024-02-14T03:08:20;10.40;90.20
77741;DHT22;66919;51.006;4.630;2024-02-14T03:10:47;10.30;90.70
77741;DHT22;66919;51.006;4.630;2024-02-14T03:13:12;10.10;91.20
77741;DHT22;66919;51.006;4.630;2024-02-14T03:15:38;10.10;91.40
77741;DHT22;66919;51.006;4.630;2024-02-14T03:18:04;10.20;91.40
77741;DHT22;66919;51.006;4.630;2024-02-14T03:20:38;10.00;91.70
77741;DHT22;66919;51.006;4.630;2024-02-14T03:23:03;10.00;91.70
77741;DHT22;66919;51.006;4.630;2024-02-14T03:25:29;10.00;91.70
77741;DHT22;66919;51.006;4.630;2024-02-14T03:27:55;10.00;91.70
77741;DHT22;66919;51.006;4.630;2024-02-14T03:30:22;10.00;91.60
77741;DHT22;66919;51.006;4.630;2024-02-14T03:32:50;10.00;91.60
77741;DHT22;66919;51.006;4.630;2024-02-14T03:35:17;10.00;91.70
77741;DHT22;66919;51.006;4.630;2024-02-14T03:37:46;10.20;91.60
77741;DHT22;66919;51.006;4.630;2024-02-14T03:40:14;10.20;91.50
77741;DHT22;66919;51.006;4.630;2024-02-14T03:42:39;10.20;92.00
77741;DHT22;66919;51.006;4.630;2024-02-14T03:45:06;10.20;91.80
77741;DHT22;66919;51.006;4.630;2024-02-14T03:47:32;10.30;92.00
77741;DHT22;66919;51.006;4.630;2024-02-14T03:49:58;10.30;91.80
77741;DHT22;66919;51.006;4.630;2024-02-14T03:52:24;10.20;91.80
77741;DHT22;66919;51.006;4.630;2024-02-14T03:54:50;10.30;92.20
77741;DHT22;66919;51.006;4.630;2024-02-14T03:57:16;10.30;91.90
77741;DHT22;66919;51.006;4.630;2024-02-14T03:59:44;10.20;92.00
77741;DHT22;66919;51.006;4.630;2024-02-14T04:02:10;10.20;92.00
77741;DHT22;66919;51.006;4.630;2024-02-14T04:04:40;10.20;91.70
77741;DHT22;66919;51.006;4.630;2024-02-14T04:07:07;10.30;91.50
77741;DHT22;66919;51.006;4.630;2024-02-14T04:09:36;10.30;91.40
77741;DHT22;66919;51.006;4.630;2024-02-14T04:12:02;10.30;91.70
77741;DHT22;66919;51.006;4.630;2024-02-14T04:14:27;10.30;91.40
77741;DHT22;66919;51.006;4.630;2024-02-14T04:16:53;10.30;91.40
77741;DHT22;66919;51.006;4.630;2024-02-14T04:19:20;10.40;91.40
77741;DHT22;66919;51.006;4.630;2024-02-14T04:21:46;10.40;91.60
77741;DHT22;66919;51.006;4.630;2024-02-14T04:24:11;10.30;91.90
77741;DHT22;66919;51.006;4.630;2024-02-14T04:26:37;10.40;91.60
77741;DHT22;66919;51.006;4.630;2024-02-14T04:29:03;10.40;91.70
77741;DHT22;66919;51.006;4.630;2024-02-14T04:31:28;10.30;91.80
77741;DHT22;66919;51.006;4.630;2024-02-14T04:33:57;10.30;91.60
77741;DHT22;66919;51.006;4.630;2024-02-14T04:36:23;10.40;91.50
77741;DHT22;66919;51.006;4.630;2024-02-14T04:38:49;10.30;91.70
77741;DHT22;66919;51.006;4.630;2024-02-14T04:41:15;10.30;92.10
77741;DHT22;66919;51.006;4.630;2024-02-14T04:43:41;10.40;91.70
77741;DHT22;66919;51.006;4.630;2024-02-14T04:46:07;10.50;91.50
77741;DHT22;66919;51.006;4.630;2024-02-14T04:48:34;10.50;91.30
77741;DHT22;66919;51.006;4.630;2024-02-14T04:51:00;10.50;91.50
77741;DHT22;66919;51.006;4.630;2024-02-14T04:53:26;10.60;91.10
77741;DHT22;66919;51.006;4.630;2024-02-14T04:55:53;10.60;91.10
77741;DHT22;66919;51.006;4.630;2024-02-14T04:58:19;10.70;91.00
77741;DHT22;66919;51.006;4.630;2024-02-14T05:00:45;10.60;91.00
77741;DHT22;66919;51.006;4.630;2024-02-14T05:03:11;10.60;91.20
77741;DHT22;66919;51.006;4.630;2024-02-14T05:05:37;10.60;91.00
77741;DHT22;66919;51.006;4.630;2024-02-14T05:08:03;10.70;91.00
77741;DHT22;66919;51.006;4.630;2024-02-14T05:10:29;10.70;91.20
77741;DHT22;66919;51.006;4.630;2024-02-14T05:12:55;10.80;91.00
77741;DHT22;66919;51.006;4.630;2024-02-14T05:15:21;10.70;91.40
77741;DHT22;66919;51.006;4.630;2024-02-14T05:17:46;10.70;91.60
77741;DHT22;66919;51.006;4.630;2024-02-14T05:20:12;10.50;91.80
77741;DHT22;66919;51.006;4.630;2024-02-14T05:22:38;10.50;91.90
77741;DHT22;66919;51.006;4.630;2024-02-14T05:25:07;10.50;92.10
77741;DHT22;66919;51.006;4.630;2024-02-14T05:27:36;10.50;91.90
77741;DHT22;66919;51.006;4.630;2024-02-14T05:30:05;10.50;91.90
77741;DHT22;66919;51.006;4.630;2024-02-14T05:32:32;10.60;91.90
77741;DHT22;66919;51.006;4.630;2024-02-14T05:34:58;10.60;91.80
77741;DHT22;66919;51.006;4.630;2024-02-14T05:37:24;10.60;91.70
77741;DHT22;66919;51.006;4.630;2024-02-14T05:39:53;10.60;91.60
77741;DHT22;66919;51.006;4.630;2024-02-14T05:42:19;10.70;91.60
77741;DHT22;66919;51.006;4.630;2024-02-14T05:44:44;10.80;91.40
77741;DHT22;66919;51.006;4.630;2024-02-14T05:47:10;10.90;90.80
77741;DHT22;66919;51.006;4.630;2024-02-14T05:49:40;10.90;91.10
77741;DHT22;66919;51.006;4.630;2024-02-14T05:52:09;10.90;91.10
77741;DHT22;66919;51.006;4.630;2024-02-14T05:54:34;10.90;91.10
77741;DHT22;66919;51.006;4.630;2024-02-14T05:57:00;10.90;91.10
77741;DHT22;66919;51.006;4.630;2024-02-14T05:59:29;10.80;91.00
77741;DHT22;66919;51.006;4.630;2024-02-14T06:01:56;11.00;90.80
77741;DHT22;66919;51.006;4.630;2024-02-14T06:04:21;11.00;90.40
77741;DHT22;66919;51.006;4.630;2024-02-14T06:06:47;11.10;90.40
77741;DHT22;66919;51.006;4.630;2024-02-14T06:09:12;11.10;90.30
77741;DHT22;66919;51.006;4.630;2024-02-14T06:11:39;11.00;90.50
77741;DHT22;66919;51.006;4.630;2024-02-14T06:14:08;11.00;90.60
77741;DHT22;66919;51.006;4.630;2024-02-14T06:16:37;10.90;90.80
77741;DHT22;66919;51.006;4.630;2024-02-14T06:19:04;11.00;90.50
77741;DHT22;66919;51.006;4.630;2024-02-14T06:21:30;11.00;90.40
77741;DHT22;66919;51.006;4.630;2024-02-14T06:23:56;11.00;90.40
77741;DHT22;66919;51.006;4.630;2024-02-14T06:26:24;11.10;90.10
77741;DHT22;66919;51.006;4.630;2024-02-14T06:28:50;11.00;90.20
77741;DHT22;66919;51.006;4.630;2024-02-14T06:31:22;11.10;90.10
77741;DHT22;66919;51.006;4.630;2024-02-14T06:33:48;11.10;90.00
77741;DHT22;66919;51.006;4.630;2024-02-14T06:36:14;11.30;89.90
77741;DHT22;66919;51.006;4.630;2024-02-14T06:38:40;11.30;89.20
77741;DHT22;66919;51.006;4.630;2024-02-14T06:41:06;11.30;89.10
77741;DHT22;66919;51.006;4.630;2024-02-14T06:43:31;11.20;89.50
77741;DHT22;66919;51.006;4.630;2024-02-14T06:45:57;11.10;90.00
77741;DHT22;66919;51.006;4.630;2024-02-14T06:48:23;11.10;90.00
77741;DHT22;66919;51.006;4.630;2024-02-14T06:50:50;11.10;89.90
77741;DHT22;66919;51.006;4.630;2024-02-14T06:53:17;11.20;89.90
77741;DHT22;66919;51.006;4.630;2024-02-14T06:55:42;11.30;89.30
77741;DHT22;66919;51.006;4.630;2024-02-14T06:58:08;11.20;89.70
77741;DHT22;66919;51.006;4.630;2024-02-14T07:00:34;11.30;89.40
77741;DHT22;66919;51.006;4.630;2024-02-14T07:02:59;11.30;89.40
77741;DHT22;66919;51.006;4.630;2024-02-14T07:05:26;11.40;88.90
77741;DHT22;66919;51.006;4.630;2024-02-14T07:07:53;11.40;88.60
77741;DHT22;66919;51.006;4.630;2024-02-14T07:10:18;11.50;88.70
77741;DHT22;66919;51.006;4.630;2024-02-14T07:12:44;11.30;89.00
77741;DHT22;66919;51.006;4.630;2024-02-14T07:15:10;11.30;89.40
77741;DHT22;66919;51.006;4.630;2024-02-14T07:17:36;11.50;88.60
77741;DHT22;66919;51.006;4.630;2024-02-14T07:20:04;11.60;88.10
77741;DHT22;66919;51.006;4.630;2024-02-14T07:22:30;11.50;88.60
77741;DHT22;66919;51.006;4.630;2024-02-14T07:24:56;11.40;88.90
77741;DHT22;66919;51.006;4.630;2024-02-14T07:27:21;11.40;88.90
77741;DHT22;66919;51.006;4.630;2024-02-14T07:29:47;11.50;88.60
77741;DHT22;66919;51.006;4.630;2024-02-14T07:32:13;11.50;88.50
77741;DHT22;66919;51.006;4.630;2024-02-14T07:34:38;11.60;87.90
77741;DHT22;66919;51.006;4.630;2024-02-14T07:37:07;11.70;87.80
77741;DHT22;66919;51.006;4.630;2024-02-14T07:39:33;11.60;88.10
77741;DHT22;66919;51.006;4.630;2024-02-14T07:42:00;11.50;88.90
77741;DHT22;66919;51.006;4.630;2024-02-14T07:44:26;11.60;88.30
77741;DHT22;66919;51.006;4.630;2024-02-14T07:46:52;11.70;87.90
77741;DHT22;66919;51.006;4.630;2024-02-14T07:49:18;11.50;88.10
77741;DHT22;66919;51.006;4.630;2024-02-14T07:51:45;11.60;88.00
77741;DHT22;66919;51.006;4.630;2024-02-14T07:54:10;11.70;88.00
77741;DHT22;66919;51.006;4.630;2024-02-14T07:56:36;11.60;88.00
77741;DHT22;66919;51.006;4.630;2024-02-14T07:59:01;11.60;88.30
77741;DHT22;66919;51.006;4.630;2024-02-14T08:01:27;11.50;88.40
77741;DHT22;66919;51.006;4.630;2024-02-14T08:03:54;11.50;88.70
77741;DHT22;66919;51.006;4.630;2024-02-14T08:06:20;11.50;88.50
77741;DHT22;66919;51.006;4.630;2024-02-14T08:08:45;11.70;88.20
77741;DHT22;66919;51.006;4.630;2024-02-14T08:11:11;11.70;87.60
77741;DHT22;66919;51.006;4.630;2024-02-14T08:13:37;11.80;87.30
77741;DHT22;66919;51.006;4.630;2024-02-14T08:16:05;11.80;87.30
77741;DHT22;66919;51.006;4.630;2024-02-14T08:18:32;11.80;87.40
77741;DHT22;66919;51.006;4.630;2024-02-14T08:20:57;12.00;86.70
77741;DHT22;66919;51.006;4.630;2024-02-14T08:23:23;12.00;86.60
77741;DHT22;66919;51.006;4.630;2024-02-14T08:25:49;11.90;87.10
77741;DHT22;66919;51.006;4.630;2024-02-14T08:28:15;11.90;87.70
77741;DHT22;66919;51.006;4.630;2024-02-14T08:30:42;11.70;89.70
77741;DHT22;66919;51.006;4.630;2024-02-14T08:33:08;11.70;90.00
77741;DHT22;66919;51.006;4.630;2024-02-14T08:35:36;11.60;90.60
77741;DHT22;66919;51.006;4.630;2024-02-14T08:38:02;11.40;91.10
77741;DHT22;66919;51.006;4.630;2024-02-14T08:40:27;11.40;91.50
77741;DHT22;66919;51.006;4.630;2024-02-14T08:42:53;11.40;91.60
77741;DHT22;66919;51.006;4.630;2024-02-14T08:45:18;11.40;91.60
77741;DHT22;66919;51.006;4.630;2024-02-14T08:47:44;11.40;91.70
77741;DHT22;66919;51.006;4.630;2024-02-14T08:50:10;11.50;91.40
77741;DHT22;66919;51.006;4.630;2024-02-14T08:52:36;11.50;91.40
77741;DHT22;66919;51.006;4.630;2024-02-14T08:55:03;11.50;91.30
77741;DHT22;66919;51.006;4.630;2024-02-14T08:57:29;11.60;91.00
77741;DHT22;66919;51.006;4.630;2024-02-14T08:59:56;11.70;90.80
77741;DHT22;66919;51.006;4.630;2024-02-14T09:02:22;11.80;90.80
77741;DHT22;66919;51.006;4.630;2024-02-14T09:04:48;11.70;91.00
77741;DHT22;66919;51.006;4.630;2024-02-14T09:07:15;11.60;91.10
77741;DHT22;66919;51.006;4.630;2024-02-14T09:09:41;11.60;91.20
77741;DHT22;66919;51.006;4.630;2024-02-14T09:12:07;11.60;91.10
77741;DHT22;66919;51.006;4.630;2024-02-14T09:14:33;11.70;91.10
77741;DHT22;66919;51.006;4.630;2024-02-14T09:16:58;11.70;91.10
77741;DHT22;66919;51.006;4.630;2024-02-14T09:19:24;11.70;91.10
77741;DHT22;66919;51.006;4.630;2024-02-14T09:21:51;11.70;90.80
77741;DHT22;66919;51.006;4.630;2024-02-14T09:24:16;11.70;91.00
77741;DHT22;66919;51.006;4.630;2024-02-14T09:26:42;11.80;91.00
77741;DHT22;66919;51.006;4.630;2024-02-14T09:29:08;11.80;90.90
77741;DHT22;66919;51.006;4.630;2024-02-14T09:31:36;11.80;90.90
77741;DHT22;66919;51.006;4.630;2024-02-14T09:34:02;11.80;91.00
77741;DHT22;66919;51.006;4.630;2024-02-14T09:36:28;11.80;91.00
77741;DHT22;66919;51.006;4.630;2024-02-14T09:38:54;11.80;91.00
77741;DHT22;66919;51.006;4.630;2024-02-14T09:41:31;11.90;90.80
77741;DHT22;66919;51.006;4.630;2024-02-14T09:44:00;12.00;90.70
77741;DHT22;66919;51.006;4.630;2024-02-14T09:46:25;12.10;90.80
77741;DHT22;66919;51.006;4.630;2024-02-14T09:48:52;11.90;91.00
77741;DHT22;66919;51.006;4.630;2024-02-14T09:51:18;11.90;90.90
77741;DHT22;66919;51.006;4.630;2024-02-14T09:53:44;12.00;91.10
77741;DHT22;66919;51.006;4.630;2024-02-14T09:56:10;12.00;91.00
77741;DHT22;66919;51.006;4.630;2024-02-14T09:58:37;12.10;91.00
77741;DHT22;66919;51.006;4.630;2024-02-14T10:01:04;12.10;90.90
77741;DHT22;66919;51.006;4.630;2024-02-14T10:03:30;11.90;91.40
77741;DHT22;66919;51.006;4.630;2024-02-14T10:05:55;11.90;91.30
77741;DHT22;66919;51.006;4.630;2024-02-14T10:08:22;12.10;91.00
77741;DHT22;66919;51.006;4.630;2024-02-14T10:10:49;12.10;91.20
77741;DHT22;66919;51.006;4.630;2024-02-14T10:13:15;12.00;91.40
77741;DHT22;66919;51.006;4.630;2024-02-14T10:15:41;12.00;91.40
77741;DHT22;66919;51.006;4.630;2024-02-14T10:18:07;12.00;91.60
77741;DHT22;66919;51.006;4.630;2024-02-14T10:20:35;12.00;92.00
77741;DHT22;66919;51.006;4.630;2024-02-14T10:23:07;12.10;91.40
77741;DHT22;66919;51.006;4.630;2024-02-14T10:25:36;12.00;91.60
77741;DHT22;66919;51.006;4.630;2024-02-14T10:28:05;11.90;92.20
77741;DHT22;66919;51.006;4.630;2024-02-14T10:30:35;12.10;91.70
77741;DHT22;66919;51.006;4.630;2024-02-14T10:33:02;12.20;91.80
77741;DHT22;66919;51.006;4.630;2024-02-14T10:35:30;12.00;91.90
77741;DHT22;66919;51.006;4.630;2024-02-14T10:37:58;12.10;91.90
77741;DHT22;66919;51.006;4.630;2024-02-14T10:40:27;12.10;91.80
77741;DHT22;66919;51.006;4.630;2024-02-14T10:42:53;12.20;91.60
77741;DHT22;66919;51.006;4.630;2024-02-14T10:45:20;12.10;91.60
77741;DHT22;66919;51.006;4.630;2024-02-14T10:47:46;12.20;91.60
77741;DHT22;66919;51.006;4.630;2024-02-14T10:50:15;12.10;91.90
77741;DHT22;66919;51.006;4.630;2024-02-14T10:52:41;12.20;91.60
77741;DHT22;66919;51.006;4.630;2024-02-14T10:55:07;12.20;91.90
77741;DHT22;66919;51.006;4.630;2024-02-14T10:57:34;12.30;91.30
77741;DHT22;66919;51.006;4.630;2024-02-14T11:00:03;12.40;91.20
77741;DHT22;66919;51.006;4.630;2024-02-14T11:02:30;12.30;91.70
77741;DHT22;66919;51.006;4.630;2024-02-14T11:04:58;12.30;91.80
77741;DHT22;66919;51.006;4.630;2024-02-14T11:07:23;12.40;91.70
77741;DHT22;66919;51.006;4.630;2024-02-14T11:10:12;12.40;91.60
77741;DHT22;66919;51.006;4.630;2024-02-14T11:12:39;12.30;92.00
77741;DHT22;66919;51.006;4.630;2024-02-14T11:15:19;12.30;92.00
77741;DHT22;66919;51.006;4.630;2024-02-14T11:17:45;12.30;92.00
77741;DHT22;66919;51.006;4.630;2024-02-14T11:20:18;12.40;91.80
77741;DHT22;66919;51.006;4.630;2024-02-14T11:22:54;12.30;91.90
77741;DHT22;66919;51.006;4.630;2024-02-14T11:25:39;12.30;91.80
77741;DHT22;66919;51.006;4.630;2024-02-14T11:28:15;12.30;92.00
77741;DHT22;66919;51.006;4.630;2024-02-14T11:30:42;12.40;92.10
77741;DHT22;66919;51.006;4.630;2024-02-14T11:33:20;12.40;92.20
77741;DHT22;66919;51.006;4.630;2024-02-14T11:35:48;12.40;91.90
77741;DHT22;66919;51.006;4.630;2024-02-14T11:38:15;12.40;92.00
77741;DHT22;66919;51.006;4.630;2024-02-14T11:40:41;12.40;92.00
77741;DHT22;66919;51.006;4.630;2024-02-14T11:43:17;12.20;92.80
77741;DHT22;66919;51.006;4.630;2024-02-14T11:45:44;12.20;93.20
77741;DHT22;66919;51.006;4.630;2024-02-14T11:48:12;12.20;92.90
77741;DHT22;66919;51.006;4.630;2024-02-14T11:50:39;12.30;93.20
77741;DHT22;66919;51.006;4.630;2024-02-14T11:53:05;12.40;92.70
77741;DHT22;66919;51.006;4.630;2024-02-14T11:55:34;12.40;92.60
77741;DHT22;66919;51.006;4.630;2024-02-14T11:58:02;12.50;92.70
77741;DHT22;66919;51.006;4.630;2024-02-14T12:00:27;12.40;93.00
77741;DHT22;66919;51.006;4.630;2024-02-14T12:02:53;12.30;93.00
77741;DHT22;66919;51.006;4.630;2024-02-14T12:05:19;12.40;93.10
77741;DHT22;66919;51.006;4.630;2024-02-14T12:07:45;12.50;92.80
77741;DHT22;66919;51.006;4.630;2024-02-14T12:10:11;12.50;93.00
77741;DHT22;66919;51.006;4.630;2024-02-14T12:12:38;12.40;93.00
77741;DHT22;66919;51.006;4.630;2024-02-14T12:15:04;12.40;92.90
77741;DHT22;66919;51.006;4.630;2024-02-14T12:17:31;12.40;93.20
77741;DHT22;66919;51.006;4.630;2024-02-14T12:20:10;12.50;92.80
77741;DHT22;66919;51.006;4.630;2024-02-14T12:22:37;12.60;92.90
77741;DHT22;66919;51.006;4.630;2024-02-14T12:25:03;12.60;92.70
77741;DHT22;66919;51.006;4.630;2024-02-14T12:27:33;12.60;92.60
77741;DHT22;66919;51.006;4.630;2024-02-14T12:30:03;12.50;92.90
77741;DHT22;66919;51.006;4.630;2024-02-14T12:32:29;12.60;92.60
77741;DHT22;66919;51.006;4.630;2024-02-14T12:34:59;12.70;92.40
77741;DHT22;66919;51.006;4.630;2024-02-14T12:37:25;12.60;92.60
77741;DHT22;66919;51.006;4.630;2024-02-14T12:39:51;12.60;92.80
77741;DHT22;66919;51.006;4.630;2024-02-14T12:42:16;12.80;92.20
77741;DHT22;66919;51.006;4.630;2024-02-14T12:44:44;12.90;91.90
77741;DHT22;66919;51.006;4.630;2024-02-14T12:47:09;12.90;91.90
77741;DHT22;66919;51.006;4.630;2024-02-14T12:49:35;12.80;92.00
77741;DHT22;66919;51.006;4.630;2024-02-14T12:52:01;12.70;92.60
77741;DHT22;66919;51.006;4.630;2024-02-14T12:54:27;12.60;92.60
77741;DHT22;66919;51.006;4.630;2024-02-14T12:56:53;12.70;92.30
77741;DHT22;66919;51.006;4.630;2024-02-14T12:59:19;12.80;92.30
77741;DHT22;66919;51.006;4.630;2024-02-14T13:01:45;12.80;92.20
77741;DHT22;66919;51.006;4.630;2024-02-14T13:04:11;13.00;91.70
77741;DHT22;66919;51.006;4.630;2024-02-14T13:06:37;12.80;92.20
77741;DHT22;66919;51.006;4.630;2024-02-14T13:09:03;12.90;92.40
77741;DHT22;66919;51.006;4.630;2024-02-14T13:11:31;12.80;92.60
77741;DHT22;66919;51.006;4.630;2024-02-14T13:13:57;12.80;92.50
77741;DHT22;66919;51.006;4.630;2024-02-14T13:16:23;12.80;92.70
77741;DHT22;66919;51.006;4.630;2024-02-14T13:18:49;12.80;93.00
77741;DHT22;66919;51.006;4.630;2024-02-14T13:21:14;12.90;92.40
77741;DHT22;66919;51.006;4.630;2024-02-14T13:23:42;12.90;92.50
77741;DHT22;66919;51.006;4.630;2024-02-14T13:26:08;12.90;92.90
77741;DHT22;66919;51.006;4.630;2024-02-14T13:28:33;12.90;92.40
77741;DHT22;66919;51.006;4.630;2024-02-14T13:31:00;12.90;92.80
77741;DHT22;66919;51.006;4.630;2024-02-14T13:33:26;12.90;92.90
77741;DHT22;66919;51.006;4.630;2024-02-14T13:35:51;12.90;92.80
77741;DHT22;66919;51.006;4.630;2024-02-14T13:38:17;13.00;92.80
77741;DHT22;66919;51.006;4.630;2024-02-14T13:40:43;12.90;93.00
77741;DHT22;66919;51.006;4.630;2024-02-14T13:43:09;12.80;93.50
77741;DHT22;66919;51.006;4.630;2024-02-14T13:45:43;12.90;93.30
77741;DHT22;66919;51.006;4.630;2024-02-14T13:48:09;12.90;93.10
77741;DHT22;66919;51.006;4.630;2024-02-14T13:50:36;12.90;92.90
77741;DHT22;66919;51.006;4.630;2024-02-14T13:53:02;12.90;93.20
77741;DHT22;66919;51.006;4.630;2024-02-14T13:55:28;12.90;93.00
77741;DHT22;66919;51.006;4.630;2024-02-14T13:57:55;13.00;92.80
77741;DHT22;66919;51.006;4.630;2024-02-14T14:00:21;12.90;93.20
77741;DHT22;66919;51.006;4.630;2024-02-14T14:02:47;12.90;93.00
77741;DHT22;66919;51.006;4.630;2024-02-14T14:05:12;12.90;93.00
77741;DHT22;66919;51.006;4.630;2024-02-14T14:07:39;13.10;92.80
77741;DHT22;66919;51.006;4.630;2024-02-14T14:10:06;13.00;92.80
77741;DHT22;66919;51.006;4.630;2024-02-14T14:12:32;13.00;92.90
77741;DHT22;66919;51.006;4.630;2024-02-14T14:14:58;13.00;92.90
77741;DHT22;66919;51.006;4.630;2024-02-14T14:17:24;12.90;93.10
77741;DHT22;66919;51.006;4.630;2024-02-14T14:19:50;13.00;92.90
77741;DHT22;66919;51.006;4.630;2024-02-14T14:22:16;13.10;93.00
77741;DHT22;66919;51.006;4.630;2024-02-14T14:24:42;13.00;93.30
77741;DHT22;66919;51.006;4.630;2024-02-14T14:27:07;13.00;92.80
77741;DHT22;66919;51.006;4.630;2024-02-14T14:29:39;13.10;92.90
77741;DHT22;66919;51.006;4.630;2024-02-14T14:32:05;13.10;93.00
77741;DHT22;66919;51.006;4.630;2024-02-14T14:34:30;13.00;92.80
77741;DHT22;66919;51.006;4.630;2024-02-14T14:36:57;13.10;93.10
77741;DHT22;66919;51.006;4.630;2024-02-14T14:39:23;13.00;93.10
77741;DHT22;66919;51.006;4.630;2024-02-14T14:41:48;13.10;93.10
77741;DHT22;66919;51.006;4.630;2024-02-14T14:44:14;13.20;92.70
77741;DHT22;66919;51.006;4.630;2024-02-14T14:46:40;13.30;92.40
77741;DHT22;66919;51.006;4.630;2024-02-14T14:49:10;13.30;92.30
77741;DHT22;66919;51.006;4.630;2024-02-14T14:51:36;13.30;92.40
77741;DHT22;66919;51.006;4.630;2024-02-14T14:54:04;13.30;92.40
77741;DHT22;66919;51.006;4.630;2024-02-14T14:56:30;13.30;92.40
77741;DHT22;66919;51.006;4.630;2024-02-14T14:58:56;13.30;92.50
77741;DHT22;66919;51.006;4.630;2024-02-14T15:01:25;13.30;92.50
77741;DHT22;66919;51.006;4.630;2024-02-14T15:03:50;13.30;92.60
77741;DHT22;66919;51.006;4.630;2024-02-14T15:06:18;13.20;92.70
77741;DHT22;66919;51.006;4.630;2024-02-14T15:08:44;13.30;92.60
77741;DHT22;66919;51.006;4.630;2024-02-14T15:11:10;13.40;92.60
77741;DHT22;66919;51.006;4.630;2024-02-14T15:13:41;13.50;92.20
77741;DHT22;66919;51.006;4.630;2024-02-14T15:16:07;13.20;92.50
77741;DHT22;66919;51.006;4.630;2024-02-14T15:18:34;13.40;92.20
77741;DHT22;66919;51.006;4.630;2024-02-14T15:21:00;13.40;92.00
77741;DHT22;66919;51.006;4.630;2024-02-14T15:23:29;13.50;92.40
77741;DHT22;66919;51.006;4.630;2024-02-14T15:25:54;13.50;92.10